sensor_id;sensor_type;location;lat;lon;timestamp;P1;durP1;ratioP1;P2;durP2;ratioP2
13941;SDS011;7043;51.630;7.254;2022-10-16T00:00:39;7.87;;;6.53;;
13941;SDS011;7043;51.630;7.254;2022-10-16T00:03:06;8.07;;;6.77;;
13941;SDS011;7043;51.630;7.254;2022-10-16T00:05:32;10.57;;;6.93;;
13941;SDS011;7043;51.630;7.254;2022-10-16T00:07:58;8.83;;;7.17;;
13941;SDS011;7043;51.630;7.254;2022-10-16T00:10:24;10.30;;;7.77;;
13941;SDS011;7043;51.630;7.254;2022-10-16T00:12:50;8.97;;;7.20;;
13941;SDS011;7043;51.630;7.254;2022-10-16T00:15:16;9.33;;;7.50;;
13941;SDS011;7043;51.630;7.254;2022-10-16T00:17:42;9.97;;;7.70;;
13941;SDS011;7043;51.630;7.254;2022-10-16T00:20:08;8.17;;;7.33;;
13941;SDS011;7043;51.630;7.254;2022-10-16T00:22:34;7.40;;;6.63;;
13941;SDS011;7043;51.630;7.254;2022-10-16T00:25:00;7.70;;;6.90;;
13941;SDS011;7043;51.630;7.254;2022-10-16T00:27:26;8.23;;;6.77;;
13941;SDS011;7043;51.630;7.254;2022-10-16T00:29:52;8.23;;;7.03;;
13941;SDS011;7043;51.630;7.254;2022-10-16T00:32:19;7.60;;;6.90;;
13941;SDS011;7043;51.630;7.254;2022-10-16T00:34:45;8.63;;;6.30;;
13941;SDS011;7043;51.630;7.254;2022-10-16T00:37:11;9.10;;;7.00;;
13941;SDS011;7043;51.630;7.254;2022-10-16T00:39:38;7.23;;;6.23;;
13941;SDS011;7043;51.630;7.254;2022-10-16T00:42:04;6.13;;;5.53;;
13941;SDS011;7043;51.630;7.254;2022-10-16T00:49:58;9.27;;;6.27;;
13941;SDS011;7043;51.630;7.254;2022-10-16T00:52:25;6.83;;;6.17;;
13941;SDS011;7043;51.630;7.254;2022-10-16T00:54:51;8.50;;;5.77;;
13941;SDS011;7043;51.630;7.254;2022-10-16T00:57:17;6.77;;;6.07;;
13941;SDS011;7043;51.630;7.254;2022-10-16T00:59:44;11.33;;;6.37;;
13941;SDS011;7043;51.630;7.254;2022-10-16T01:02:12;6.63;;;5.67;;
13941;SDS011;7043;51.630;7.254;2022-10-16T01:04:39;8.10;;;5.90;;
13941;SDS011;7043;51.630;7.254;2022-10-16T01:12:33;10.03;;;6.30;;
13941;SDS011;7043;51.630;7.254;2022-10-16T01:15:03;6.87;;;5.50;;
13941;SDS011;7043;51.630;7.254;2022-10-16T01:17:38;6.27;;;4.90;;
13941;SDS011;7043;51.630;7.254;2022-10-16T01:22:44;6.30;;;4.87;;
13941;SDS011;7043;51.630;7.254;2022-10-16T01:25:19;4.63;;;4.17;;
13941;SDS011;7043;51.630;7.254;2022-10-16T01:27:48;4.77;;;4.27;;
13941;SDS011;7043;51.630;7.254;2022-10-16T01:30:32;6.57;;;4.67;;
13941;SDS011;7043;51.630;7.254;2022-10-16T01:33:01;5.33;;;4.17;;
13941;SDS011;7043;51.630;7.254;2022-10-16T01:35:32;7.23;;;4.17;;
13941;SDS011;7043;51.630;7.254;2022-10-16T01:38:17;6.13;;;4.47;;
13941;SDS011;7043;51.630;7.254;2022-10-16T01:40:46;5.70;;;3.97;;
13941;SDS011;7043;51.630;7.254;2022-10-16T01:43:17;6.20;;;3.90;;
13941;SDS011;7043;51.630;7.254;2022-10-16T01:45:44;5.10;;;3.63;;
13941;SDS011;7043;51.630;7.254;2022-10-16T01:48:16;5.37;;;3.43;;
13941;SDS011;7043;51.630;7.254;2022-10-16T01:50:43;5.63;;;4.00;;
13941;SDS011;7043;51.630;7.254;2022-10-16T01:53:10;5.33;;;3.87;;
13941;SDS011;7043;51.630;7.254;2022-10-16T01:55:38;5.33;;;3.50;;
13941;SDS011;7043;51.630;7.254;2022-10-16T01:58:08;4.83;;;4.23;;
13941;SDS011;7043;51.630;7.254;2022-10-16T02:00:36;4.23;;;3.43;;
13941;SDS011;7043;51.630;7.254;2022-10-16T02:03:03;5.67;;;4.03;;
13941;SDS011;7043;51.630;7.254;2022-10-16T02:05:34;4.07;;;3.60;;
13941;SDS011;7043;51.630;7.254;2022-10-16T02:08:02;4.20;;;3.80;;
13941;SDS011;7043;51.630;7.254;2022-10-16T02:10:28;4.87;;;3.67;;
13941;SDS011;7043;51.630;7.254;2022-10-16T02:13:06;5.17;;;4.10;;
13941;SDS011;7043;51.630;7.254;2022-10-16T02:15:33;4.43;;;3.80;;
13941;SDS011;7043;51.630;7.254;2022-10-16T02:17:59;4.40;;;3.70;;
13941;SDS011;7043;51.630;7.254;2022-10-16T02:20:27;6.07;;;4.73;;
13941;SDS011;7043;51.630;7.254;2022-10-16T02:22:53;4.90;;;3.30;;
13941;SDS011;7043;51.630;7.254;2022-10-16T02:25:31;4.57;;;3.57;;
13941;SDS011;7043;51.630;7.254;2022-10-16T02:30:45;3.77;;;3.17;;
13941;SDS011;7043;51.630;7.254;2022-10-16T02:33:13;5.33;;;3.20;;
13941;SDS011;7043;51.630;7.254;2022-10-16T02:35:40;5.53;;;3.10;;
13941;SDS011;7043;51.630;7.254;2022-10-16T02:38:07;4.03;;;2.93;;
13941;SDS011;7043;51.630;7.254;2022-10-16T02:40:33;4.67;;;3.00;;
13941;SDS011;7043;51.630;7.254;2022-10-16T02:42:59;4.63;;;2.70;;
13941;SDS011;7043;51.630;7.254;2022-10-16T02:45:25;5.77;;;3.10;;
13941;SDS011;7043;51.630;7.254;2022-10-16T02:47:51;4.93;;;2.70;;
13941;SDS011;7043;51.630;7.254;2022-10-16T02:50:17;4.03;;;3.13;;
13941;SDS011;7043;51.630;7.254;2022-10-16T02:52:43;3.20;;;2.90;;
13941;SDS011;7043;51.630;7.254;2022-10-16T02:55:09;7.87;;;3.10;;
13941;SDS011;7043;51.630;7.254;2022-10-16T02:57:35;4.03;;;2.70;;
13941;SDS011;7043;51.630;7.254;2022-10-16T03:00:03;2.83;;;2.63;;
13941;SDS011;7043;51.630;7.254;2022-10-16T03:02:29;4.07;;;2.90;;
13941;SDS011;7043;51.630;7.254;2022-10-16T03:04:55;5.10;;;3.13;;
13941;SDS011;7043;51.630;7.254;2022-10-16T03:07:21;3.50;;;3.20;;
13941;SDS011;7043;51.630;7.254;2022-10-16T03:09:47;3.13;;;2.70;;
13941;SDS011;7043;51.630;7.254;2022-10-16T03:12:13;5.00;;;3.60;;
13941;SDS011;7043;51.630;7.254;2022-10-16T03:14:39;3.60;;;2.83;;
13941;SDS011;7043;51.630;7.254;2022-10-16T03:17:05;4.93;;;3.00;;
13941;SDS011;7043;51.630;7.254;2022-10-16T03:19:31;4.67;;;3.10;;
13941;SDS011;7043;51.630;7.254;2022-10-16T03:21:57;4.53;;;3.00;;
13941;SDS011;7043;51.630;7.254;2022-10-16T03:24:23;6.07;;;3.40;;
13941;SDS011;7043;51.630;7.254;2022-10-16T03:26:49;4.70;;;3.17;;
13941;SDS011;7043;51.630;7.254;2022-10-16T03:29:15;5.57;;;3.40;;
13941;SDS011;7043;51.630;7.254;2022-10-16T03:31:41;3.43;;;3.13;;
13941;SDS011;7043;51.630;7.254;2022-10-16T03:34:07;3.80;;;2.93;;
13941;SDS011;7043;51.630;7.254;2022-10-16T03:36:33;3.50;;;3.13;;
13941;SDS011;7043;51.630;7.254;2022-10-16T03:38:59;3.40;;;3.10;;
13941;SDS011;7043;51.630;7.254;2022-10-16T03:41:25;4.50;;;3.00;;
13941;SDS011;7043;51.630;7.254;2022-10-16T03:43:51;3.50;;;3.20;;
13941;SDS011;7043;51.630;7.254;2022-10-16T03:46:17;3.27;;;2.97;;
13941;SDS011;7043;51.630;7.254;2022-10-16T03:48:43;3.13;;;2.83;;
13941;SDS011;7043;51.630;7.254;2022-10-16T03:51:09;3.27;;;2.30;;
13941;SDS011;7043;51.630;7.254;2022-10-16T03:53:35;5.07;;;2.97;;
13941;SDS011;7043;51.630;7.254;2022-10-16T03:56:01;3.50;;;2.43;;
13941;SDS011;7043;51.630;7.254;2022-10-16T03:58:27;3.53;;;2.33;;
13941;SDS011;7043;51.630;7.254;2022-10-16T04:00:53;3.30;;;2.20;;
13941;SDS011;7043;51.630;7.254;2022-10-16T04:03:19;2.40;;;2.10;;
13941;SDS011;7043;51.630;7.254;2022-10-16T04:05:46;2.93;;;2.03;;
13941;SDS011;7043;51.630;7.254;2022-10-16T04:08:12;2.10;;;1.90;;
13941;SDS011;7043;51.630;7.254;2022-10-16T04:10:38;2.40;;;2.20;;
13941;SDS011;7043;51.630;7.254;2022-10-16T04:13:04;2.60;;;2.13;;
13941;SDS011;7043;51.630;7.254;2022-10-16T04:15:30;3.50;;;2.00;;
13941;SDS011;7043;51.630;7.254;2022-10-16T04:17:56;3.40;;;1.83;;
13941;SDS011;7043;51.630;7.254;2022-10-16T04:20:22;3.60;;;1.90;;
13941;SDS011;7043;51.630;7.254;2022-10-16T04:22:48;2.67;;;1.80;;
13941;SDS011;7043;51.630;7.254;2022-10-16T04:25:14;2.67;;;1.87;;
13941;SDS011;7043;51.630;7.254;2022-10-16T04:27:40;3.83;;;1.80;;
13941;SDS011;7043;51.630;7.254;2022-10-16T04:30:06;2.20;;;1.80;;
13941;SDS011;7043;51.630;7.254;2022-10-16T04:32:32;2.13;;;1.60;;
13941;SDS011;7043;51.630;7.254;2022-10-16T04:34:58;1.90;;;1.60;;
13941;SDS011;7043;51.630;7.254;2022-10-16T04:37:24;2.60;;;1.50;;
13941;SDS011;7043;51.630;7.254;2022-10-16T04:39:51;1.93;;;1.60;;
13941;SDS011;7043;51.630;7.254;2022-10-16T04:42:17;3.10;;;1.60;;
13941;SDS011;7043;51.630;7.254;2022-10-16T04:44:43;2.73;;;1.50;;
13941;SDS011;7043;51.630;7.254;2022-10-16T04:47:09;1.70;;;1.60;;
13941;SDS011;7043;51.630;7.254;2022-10-16T04:49:35;2.70;;;1.53;;
13941;SDS011;7043;51.630;7.254;2022-10-16T04:52:01;1.93;;;1.50;;
13941;SDS011;7043;51.630;7.254;2022-10-16T04:54:27;2.20;;;1.70;;
13941;SDS011;7043;51.630;7.254;2022-10-16T04:56:53;3.20;;;1.70;;
13941;SDS011;7043;51.630;7.254;2022-10-16T04:59:19;2.00;;;1.50;;
13941;SDS011;7043;51.630;7.254;2022-10-16T05:01:45;3.30;;;1.80;;
13941;SDS011;7043;51.630;7.254;2022-10-16T05:04:11;2.20;;;1.80;;
13941;SDS011;7043;51.630;7.254;2022-10-16T05:06:37;2.33;;;1.80;;
13941;SDS011;7043;51.630;7.254;2022-10-16T05:09:04;2.17;;;1.97;;
13941;SDS011;7043;51.630;7.254;2022-10-16T05:11:31;2.07;;;1.60;;
13941;SDS011;7043;51.630;7.254;2022-10-16T05:13:57;2.00;;;1.80;;
13941;SDS011;7043;51.630;7.254;2022-10-16T05:16:23;2.80;;;1.90;;
13941;SDS011;7043;51.630;7.254;2022-10-16T05:18:48;2.77;;;1.80;;
13941;SDS011;7043;51.630;7.254;2022-10-16T05:21:14;3.77;;;1.90;;
13941;SDS011;7043;51.630;7.254;2022-10-16T05:23:40;1.90;;;1.80;;
13941;SDS011;7043;51.630;7.254;2022-10-16T05:26:06;2.43;;;1.70;;
13941;SDS011;7043;51.630;7.254;2022-10-16T05:28:33;3.17;;;2.17;;
13941;SDS011;7043;51.630;7.254;2022-10-16T05:30:59;3.50;;;2.13;;
13941;SDS011;7043;51.630;7.254;2022-10-16T05:33:25;2.27;;;2.07;;
13941;SDS011;7043;51.630;7.254;2022-10-16T05:35:51;2.83;;;2.37;;
13941;SDS011;7043;51.630;7.254;2022-10-16T05:38:17;2.43;;;1.93;;
13941;SDS011;7043;51.630;7.254;2022-10-16T05:40:49;2.93;;;1.83;;
13941;SDS011;7043;51.630;7.254;2022-10-16T05:43:16;2.47;;;2.07;;
13941;SDS011;7043;51.630;7.254;2022-10-16T05:45:42;2.47;;;1.60;;
13941;SDS011;7043;51.630;7.254;2022-10-16T05:48:08;2.03;;;1.80;;
13941;SDS011;7043;51.630;7.254;2022-10-16T05:50:34;4.23;;;1.80;;
13941;SDS011;7043;51.630;7.254;2022-10-16T05:53:00;1.80;;;1.50;;
13941;SDS011;7043;51.630;7.254;2022-10-16T05:55:26;3.90;;;1.80;;
13941;SDS011;7043;51.630;7.254;2022-10-16T05:57:54;2.93;;;1.80;;
13941;SDS011;7043;51.630;7.254;2022-10-16T06:00:19;2.67;;;1.70;;
13941;SDS011;7043;51.630;7.254;2022-10-16T06:02:45;2.07;;;1.50;;
13941;SDS011;7043;51.630;7.254;2022-10-16T06:05:11;1.90;;;1.70;;
13941;SDS011;7043;51.630;7.254;2022-10-16T06:07:37;3.83;;;1.80;;
13941;SDS011;7043;51.630;7.254;2022-10-16T06:10:04;2.17;;;1.70;;
13941;SDS011;7043;51.630;7.254;2022-10-16T06:12:30;1.97;;;1.77;;
13941;SDS011;7043;51.630;7.254;2022-10-16T06:14:56;2.33;;;1.60;;
13941;SDS011;7043;51.630;7.254;2022-10-16T06:17:22;1.97;;;1.70;;
13941;SDS011;7043;51.630;7.254;2022-10-16T06:19:48;3.10;;;1.80;;
13941;SDS011;7043;51.630;7.254;2022-10-16T06:22:13;1.97;;;1.50;;
13941;SDS011;7043;51.630;7.254;2022-10-16T06:24:39;3.47;;;1.70;;
13941;SDS011;7043;51.630;7.254;2022-10-16T06:27:05;3.83;;;1.90;;
13941;SDS011;7043;51.630;7.254;2022-10-16T06:29:31;2.00;;;1.70;;
13941;SDS011;7043;51.630;7.254;2022-10-16T06:31:57;2.47;;;1.77;;
13941;SDS011;7043;51.630;7.254;2022-10-16T06:34:23;3.40;;;1.87;;
13941;SDS011;7043;51.630;7.254;2022-10-16T06:36:49;2.73;;;1.57;;
13941;SDS011;7043;51.630;7.254;2022-10-16T06:39:15;3.13;;;1.60;;
13941;SDS011;7043;51.630;7.254;2022-10-16T06:41:41;3.30;;;1.60;;
13941;SDS011;7043;51.630;7.254;2022-10-16T06:44:07;2.00;;;1.80;;
13941;SDS011;7043;51.630;7.254;2022-10-16T06:46:33;2.20;;;1.60;;
13941;SDS011;7043;51.630;7.254;2022-10-16T06:48:59;1.93;;;1.60;;
13941;SDS011;7043;51.630;7.254;2022-10-16T06:51:25;2.23;;;1.90;;
13941;SDS011;7043;51.630;7.254;2022-10-16T06:53:52;2.20;;;1.57;;
13941;SDS011;7043;51.630;7.254;2022-10-16T06:56:23;4.40;;;1.90;;
13941;SDS011;7043;51.630;7.254;2022-10-16T06:58:49;2.67;;;1.70;;
13941;SDS011;7043;51.630;7.254;2022-10-16T07:01:16;2.90;;;1.97;;
13941;SDS011;7043;51.630;7.254;2022-10-16T07:03:43;2.80;;;1.77;;
13941;SDS011;7043;51.630;7.254;2022-10-16T07:06:10;2.77;;;2.00;;
13941;SDS011;7043;51.630;7.254;2022-10-16T07:08:37;3.43;;;2.63;;
13941;SDS011;7043;51.630;7.254;2022-10-16T07:11:07;3.73;;;2.27;;
13941;SDS011;7043;51.630;7.254;2022-10-16T07:13:34;4.97;;;1.87;;
13941;SDS011;7043;51.630;7.254;2022-10-16T07:16:17;4.60;;;2.10;;
13941;SDS011;7043;51.630;7.254;2022-10-16T07:18:43;2.10;;;1.90;;
13941;SDS011;7043;51.630;7.254;2022-10-16T07:21:18;6.20;;;5.47;;
13941;SDS011;7043;51.630;7.254;2022-10-16T07:23:45;3.40;;;3.10;;
13941;SDS011;7043;51.630;7.254;2022-10-16T07:26:11;2.40;;;2.20;;
13941;SDS011;7043;51.630;7.254;2022-10-16T07:28:37;3.23;;;2.70;;
13941;SDS011;7043;51.630;7.254;2022-10-16T07:31:05;3.67;;;2.43;;
13941;SDS011;7043;51.630;7.254;2022-10-16T07:33:33;3.63;;;2.63;;
13941;SDS011;7043;51.630;7.254;2022-10-16T07:35:59;3.33;;;3.03;;
13941;SDS011;7043;51.630;7.254;2022-10-16T07:38:25;3.10;;;2.60;;
13941;SDS011;7043;51.630;7.254;2022-10-16T07:41:00;4.17;;;2.90;;
13941;SDS011;7043;51.630;7.254;2022-10-16T07:43:27;2.70;;;2.37;;
13941;SDS011;7043;51.630;7.254;2022-10-16T07:45:53;2.90;;;2.70;;
13941;SDS011;7043;51.630;7.254;2022-10-16T07:48:20;4.60;;;2.63;;
13941;SDS011;7043;51.630;7.254;2022-10-16T07:50:46;5.37;;;2.33;;
13941;SDS011;7043;51.630;7.254;2022-10-16T07:53:12;3.80;;;2.37;;
13941;SDS011;7043;51.630;7.254;2022-10-16T07:55:38;3.97;;;2.40;;
13941;SDS011;7043;51.630;7.254;2022-10-16T07:58:04;4.93;;;2.40;;
13941;SDS011;7043;51.630;7.254;2022-10-16T08:00:31;1.80;;;1.67;;
13941;SDS011;7043;51.630;7.254;2022-10-16T08:02:57;3.53;;;2.10;;
13941;SDS011;7043;51.630;7.254;2022-10-16T08:05:27;1.97;;;1.40;;
13941;SDS011;7043;51.630;7.254;2022-10-16T08:07:54;3.73;;;2.50;;
13941;SDS011;7043;51.630;7.254;2022-10-16T08:10:22;3.63;;;1.83;;
13941;SDS011;7043;51.630;7.254;2022-10-16T08:12:48;3.30;;;2.00;;
13941;SDS011;7043;51.630;7.254;2022-10-16T08:15:14;3.40;;;1.90;;
13941;SDS011;7043;51.630;7.254;2022-10-16T08:17:40;3.30;;;1.87;;
13941;SDS011;7043;51.630;7.254;2022-10-16T08:20:06;3.13;;;1.73;;
13941;SDS011;7043;51.630;7.254;2022-10-16T08:22:32;6.43;;;3.00;;
13941;SDS011;7043;51.630;7.254;2022-10-16T08:24:58;7.50;;;3.03;;
13941;SDS011;7043;51.630;7.254;2022-10-16T08:27:24;4.27;;;3.23;;
13941;SDS011;7043;51.630;7.254;2022-10-16T08:29:50;4.13;;;2.10;;
13941;SDS011;7043;51.630;7.254;2022-10-16T08:32:19;10.30;;;2.57;;
13941;SDS011;7043;51.630;7.254;2022-10-16T08:34:45;5.27;;;2.33;;
13941;SDS011;7043;51.630;7.254;2022-10-16T08:37:11;2.33;;;1.80;;
13941;SDS011;7043;51.630;7.254;2022-10-16T08:39:38;4.27;;;1.80;;
13941;SDS011;7043;51.630;7.254;2022-10-16T08:50:13;3.33;;;1.37;;
13941;SDS011;7043;51.630;7.254;2022-10-16T08:52:40;4.37;;;1.40;;
13941;SDS011;7043;51.630;7.254;2022-10-16T08:55:11;3.57;;;1.40;;
13941;SDS011;7043;51.630;7.254;2022-10-16T08:57:42;1.57;;;1.47;;
13941;SDS011;7043;51.630;7.254;2022-10-16T09:00:12;2.97;;;1.30;;
13941;SDS011;7043;51.630;7.254;2022-10-16T09:02:38;2.00;;;1.20;;
13941;SDS011;7043;51.630;7.254;2022-10-16T09:13:18;3.17;;;1.60;;
13941;SDS011;7043;51.630;7.254;2022-10-16T09:18:18;2.97;;;1.33;;
13941;SDS011;7043;51.630;7.254;2022-10-16T09:20:59;2.30;;;1.23;;
13941;SDS011;7043;51.630;7.254;2022-10-16T09:23:27;3.97;;;1.70;;
13941;SDS011;7043;51.630;7.254;2022-10-16T09:25:54;3.83;;;1.40;;
13941;SDS011;7043;51.630;7.254;2022-10-16T09:28:21;3.90;;;1.57;;
13941;SDS011;7043;51.630;7.254;2022-10-16T09:30:47;3.60;;;1.37;;
13941;SDS011;7043;51.630;7.254;2022-10-16T09:33:14;3.57;;;1.57;;
13941;SDS011;7043;51.630;7.254;2022-10-16T09:38:20;3.20;;;1.63;;
13941;SDS011;7043;51.630;7.254;2022-10-16T09:40:46;2.40;;;1.13;;
13941;SDS011;7043;51.630;7.254;2022-10-16T09:45:41;6.60;;;1.80;;
13941;SDS011;7043;51.630;7.254;2022-10-16T09:48:11;2.77;;;1.53;;
13941;SDS011;7043;51.630;7.254;2022-10-16T09:50:37;4.07;;;1.70;;
13941;SDS011;7043;51.630;7.254;2022-10-16T09:53:13;3.90;;;1.60;;
13941;SDS011;7043;51.630;7.254;2022-10-16T09:55:49;4.43;;;1.63;;
13941;SDS011;7043;51.630;7.254;2022-10-16T09:58:15;2.80;;;1.90;;
13941;SDS011;7043;51.630;7.254;2022-10-16T10:00:42;3.73;;;2.10;;
13941;SDS011;7043;51.630;7.254;2022-10-16T10:03:23;4.40;;;2.23;;
13941;SDS011;7043;51.630;7.254;2022-10-16T10:05:56;5.30;;;1.90;;
13941;SDS011;7043;51.630;7.254;2022-10-16T10:08:23;4.20;;;1.90;;
13941;SDS011;7043;51.630;7.254;2022-10-16T10:10:49;4.70;;;1.97;;
13941;SDS011;7043;51.630;7.254;2022-10-16T10:13:19;2.93;;;2.03;;
13941;SDS011;7043;51.630;7.254;2022-10-16T10:15:46;3.80;;;1.70;;
13941;SDS011;7043;51.630;7.254;2022-10-16T10:18:18;2.80;;;2.10;;
13941;SDS011;7043;51.630;7.254;2022-10-16T10:20:46;4.03;;;1.77;;
13941;SDS011;7043;51.630;7.254;2022-10-16T10:23:23;4.63;;;1.63;;
13941;SDS011;7043;51.630;7.254;2022-10-16T10:25:51;5.67;;;1.93;;
13941;SDS011;7043;51.630;7.254;2022-10-16T10:28:24;4.97;;;1.70;;
13941;SDS011;7043;51.630;7.254;2022-10-16T10:36:12;3.13;;;1.60;;
13941;SDS011;7043;51.630;7.254;2022-10-16T10:41:57;3.60;;;1.47;;
13941;SDS011;7043;51.630;7.254;2022-10-16T10:46:32;2.67;;;1.17;;
13941;SDS011;7043;51.630;7.254;2022-10-16T10:51:44;2.33;;;1.50;;
13941;SDS011;7043;51.630;7.254;2022-10-16T10:54:26;2.80;;;1.67;;
13941;SDS011;7043;51.630;7.254;2022-10-16T10:57:03;3.90;;;1.83;;
13941;SDS011;7043;51.630;7.254;2022-10-16T11:04:43;2.93;;;1.90;;
13941;SDS011;7043;51.630;7.254;2022-10-16T11:07:17;4.77;;;1.90;;
13941;SDS011;7043;51.630;7.254;2022-10-16T11:09:45;2.80;;;2.00;;
13941;SDS011;7043;51.630;7.254;2022-10-16T11:12:17;3.08;;;2.20;;
13941;SDS011;7043;51.630;7.254;2022-10-16T11:17:33;4.50;;;3.00;;
13941;SDS011;7043;51.630;7.254;2022-10-16T11:22:50;5.67;;;2.50;;
13941;SDS011;7043;51.630;7.254;2022-10-16T11:30:20;3.07;;;2.37;;
13941;SDS011;7043;51.630;7.254;2022-10-16T11:35:25;2.63;;;1.80;;
13941;SDS011;7043;51.630;7.254;2022-10-16T11:37:58;2.20;;;1.60;;
13941;SDS011;7043;51.630;7.254;2022-10-16T11:40:31;3.03;;;1.63;;
13941;SDS011;7043;51.630;7.254;2022-10-16T11:43:21;3.08;;;1.17;;
13941;SDS011;7043;51.630;7.254;2022-10-16T11:45:50;2.00;;;1.00;;
13941;SDS011;7043;51.630;7.254;2022-10-16T11:48:20;2.05;;;0.90;;
13941;SDS011;7043;51.630;7.254;2022-10-16T11:50:50;4.60;;;1.10;;
13941;SDS011;7043;51.630;7.254;2022-10-16T11:55:45;2.42;;;1.33;;
13941;SDS011;7043;51.630;7.254;2022-10-16T12:01:01;3.63;;;1.30;;
13941;SDS011;7043;51.630;7.254;2022-10-16T12:09:27;2.08;;;1.00;;
13941;SDS011;7043;51.630;7.254;2022-10-16T12:11:53;2.45;;;1.40;;
13941;SDS011;7043;51.630;7.254;2022-10-16T12:14:33;3.65;;;1.70;;
13941;SDS011;7043;51.630;7.254;2022-10-16T12:17:46;2.97;;;1.33;;
13941;SDS011;7043;51.630;7.254;2022-10-16T12:20:12;3.90;;;1.40;;
13941;SDS011;7043;51.630;7.254;2022-10-16T12:22:41;4.90;;;1.48;;
13941;SDS011;7043;51.630;7.254;2022-10-16T12:28:25;3.00;;;1.30;;
13941;SDS011;7043;51.630;7.254;2022-10-16T12:30:53;2.90;;;1.08;;
13941;SDS011;7043;51.630;7.254;2022-10-16T12:33:29;2.05;;;0.95;;
13941;SDS011;7043;51.630;7.254;2022-10-16T12:35:56;2.58;;;0.93;;
13941;SDS011;7043;51.630;7.254;2022-10-16T12:41:09;2.75;;;1.13;;
13941;SDS011;7043;51.630;7.254;2022-10-16T12:48:39;2.38;;;1.15;;
13941;SDS011;7043;51.630;7.254;2022-10-16T12:51:12;2.47;;;1.00;;
13941;SDS011;7043;51.630;7.254;2022-10-16T12:53:38;2.10;;;1.13;;
13941;SDS011;7043;51.630;7.254;2022-10-16T13:01:53;3.13;;;1.10;;
13941;SDS011;7043;51.630;7.254;2022-10-16T13:06:51;3.35;;;1.67;;
13941;SDS011;7043;51.630;7.254;2022-10-16T13:15:04;2.30;;;1.00;;
13941;SDS011;7043;51.630;7.254;2022-10-16T13:19:37;2.50;;;1.50;;
13941;SDS011;7043;51.630;7.254;2022-10-16T13:22:14;3.05;;;1.20;;
13941;SDS011;7043;51.630;7.254;2022-10-16T13:28:04;4.78;;;1.50;;
13941;SDS011;7043;51.630;7.254;2022-10-16T13:30:41;2.30;;;1.30;;
13941;SDS011;7043;51.630;7.254;2022-10-16T13:33:19;3.25;;;1.30;;
13941;SDS011;7043;51.630;7.254;2022-10-16T13:35:49;3.58;;;1.50;;
13941;SDS011;7043;51.630;7.254;2022-10-16T13:38:17;3.80;;;2.00;;
13941;SDS011;7043;51.630;7.254;2022-10-16T13:43:19;3.20;;;1.98;;
13941;SDS011;7043;51.630;7.254;2022-10-16T13:45:59;5.20;;;2.25;;
13941;SDS011;7043;51.630;7.254;2022-10-16T13:48:25;3.55;;;1.70;;
13941;SDS011;7043;51.630;7.254;2022-10-16T13:51:25;3.83;;;1.80;;
13941;SDS011;7043;51.630;7.254;2022-10-16T13:53:44;2.33;;;1.60;;
13941;SDS011;7043;51.630;7.254;2022-10-16T13:56:14;3.05;;;1.77;;
13941;SDS011;7043;51.630;7.254;2022-10-16T13:58:41;4.43;;;1.58;;
13941;SDS011;7043;51.630;7.254;2022-10-16T14:03:45;2.90;;;1.80;;
13941;SDS011;7043;51.630;7.254;2022-10-16T14:06:13;3.63;;;1.45;;
13941;SDS011;7043;51.630;7.254;2022-10-16T14:08:44;2.22;;;1.30;;
13941;SDS011;7043;51.630;7.254;2022-10-16T14:11:12;4.70;;;1.60;;
13941;SDS011;7043;51.630;7.254;2022-10-16T14:13:39;3.22;;;1.60;;
13941;SDS011;7043;51.630;7.254;2022-10-16T14:16:07;2.90;;;1.30;;
13941;SDS011;7043;51.630;7.254;2022-10-16T14:18:33;2.70;;;1.23;;
13941;SDS011;7043;51.630;7.254;2022-10-16T14:21:03;1.77;;;1.10;;
13941;SDS011;7043;51.630;7.254;2022-10-16T14:23:35;1.90;;;1.10;;
13941;SDS011;7043;51.630;7.254;2022-10-16T14:26:06;1.95;;;0.90;;
13941;SDS011;7043;51.630;7.254;2022-10-16T14:28:32;3.42;;;1.40;;
13941;SDS011;7043;51.630;7.254;2022-10-16T14:30:59;2.47;;;1.13;;
13941;SDS011;7043;51.630;7.254;2022-10-16T14:36:13;2.05;;;1.02;;
13941;SDS011;7043;51.630;7.254;2022-10-16T14:38:48;2.03;;;1.10;;
13941;SDS011;7043;51.630;7.254;2022-10-16T14:41:15;2.60;;;1.25;;
13941;SDS011;7043;51.630;7.254;2022-10-16T14:43:49;3.55;;;0.90;;
13941;SDS011;7043;51.630;7.254;2022-10-16T14:46:17;1.55;;;0.93;;
13941;SDS011;7043;51.630;7.254;2022-10-16T14:48:45;3.58;;;1.08;;
13941;SDS011;7043;51.630;7.254;2022-10-16T14:51:19;2.72;;;0.90;;
13941;SDS011;7043;51.630;7.254;2022-10-16T14:53:45;2.53;;;0.70;;
13941;SDS011;7043;51.630;7.254;2022-10-16T14:56:18;1.60;;;0.75;;
13941;SDS011;7043;51.630;7.254;2022-10-16T14:58:45;2.70;;;0.85;;
13941;SDS011;7043;51.630;7.254;2022-10-16T15:01:11;3.72;;;2.50;;
13941;SDS011;7043;51.630;7.254;2022-10-16T15:03:38;2.65;;;1.25;;
13941;SDS011;7043;51.630;7.254;2022-10-16T15:06:08;3.38;;;1.30;;
13941;SDS011;7043;51.630;7.254;2022-10-16T15:08:35;2.58;;;1.33;;
13941;SDS011;7043;51.630;7.254;2022-10-16T15:11:01;3.05;;;1.50;;
13941;SDS011;7043;51.630;7.254;2022-10-16T15:13:27;4.57;;;1.27;;
13941;SDS011;7043;51.630;7.254;2022-10-16T15:15:53;4.28;;;1.20;;
13941;SDS011;7043;51.630;7.254;2022-10-16T15:18:19;2.67;;;1.00;;
13941;SDS011;7043;51.630;7.254;2022-10-16T15:20:49;2.13;;;1.02;;
13941;SDS011;7043;51.630;7.254;2022-10-16T15:23:16;3.72;;;1.05;;
13941;SDS011;7043;51.630;7.254;2022-10-16T15:25:46;2.47;;;1.10;;
13941;SDS011;7043;51.630;7.254;2022-10-16T15:28:13;3.15;;;1.20;;
13941;SDS011;7043;51.630;7.254;2022-10-16T15:30:39;3.90;;;0.90;;
13941;SDS011;7043;51.630;7.254;2022-10-16T15:33:09;2.45;;;1.05;;
13941;SDS011;7043;51.630;7.254;2022-10-16T15:35:36;2.90;;;0.98;;
13941;SDS011;7043;51.630;7.254;2022-10-16T15:38:02;3.35;;;1.17;;
13941;SDS011;7043;51.630;7.254;2022-10-16T15:40:28;1.98;;;1.10;;
13941;SDS011;7043;51.630;7.254;2022-10-16T15:43:01;5.07;;;1.52;;
13941;SDS011;7043;51.630;7.254;2022-10-16T15:45:27;2.90;;;1.90;;
13941;SDS011;7043;51.630;7.254;2022-10-16T15:47:53;3.63;;;2.10;;
13941;SDS011;7043;51.630;7.254;2022-10-16T15:50:19;6.15;;;2.08;;
13941;SDS011;7043;51.630;7.254;2022-10-16T15:52:49;2.85;;;1.60;;
13941;SDS011;7043;51.630;7.254;2022-10-16T15:55:16;3.00;;;0.90;;
13941;SDS011;7043;51.630;7.254;2022-10-16T15:57:43;1.30;;;1.00;;
13941;SDS011;7043;51.630;7.254;2022-10-16T16:00:11;3.00;;;1.00;;
13941;SDS011;7043;51.630;7.254;2022-10-16T16:02:38;2.92;;;1.38;;
13941;SDS011;7043;51.630;7.254;2022-10-16T16:05:04;2.85;;;1.15;;
13941;SDS011;7043;51.630;7.254;2022-10-16T16:07:34;2.45;;;1.10;;
13941;SDS011;7043;51.630;7.254;2022-10-16T16:10:01;3.65;;;1.40;;
13941;SDS011;7043;51.630;7.254;2022-10-16T16:12:27;2.30;;;1.30;;
13941;SDS011;7043;51.630;7.254;2022-10-16T16:14:53;6.10;;;1.60;;
13941;SDS011;7043;51.630;7.254;2022-10-16T16:17:19;3.10;;;1.23;;
13941;SDS011;7043;51.630;7.254;2022-10-16T16:19:45;3.58;;;1.27;;
13941;SDS011;7043;51.630;7.254;2022-10-16T16:22:12;4.00;;;1.23;;
13941;SDS011;7043;51.630;7.254;2022-10-16T16:24:38;2.92;;;1.10;;
13941;SDS011;7043;51.630;7.254;2022-10-16T16:27:04;2.75;;;0.90;;
13941;SDS011;7043;51.630;7.254;2022-10-16T16:29:30;1.30;;;0.90;;
13941;SDS011;7043;51.630;7.254;2022-10-16T16:31:56;2.85;;;1.40;;
13941;SDS011;7043;51.630;7.254;2022-10-16T16:34:24;2.13;;;1.02;;
13941;SDS011;7043;51.630;7.254;2022-10-16T16:36:50;3.20;;;1.15;;
13941;SDS011;7043;51.630;7.254;2022-10-16T16:39:16;3.08;;;2.00;;
13941;SDS011;7043;51.630;7.254;2022-10-16T16:41:44;3.88;;;3.30;;
13941;SDS011;7043;51.630;7.254;2022-10-16T16:44:13;2.17;;;1.40;;
13941;SDS011;7043;51.630;7.254;2022-10-16T16:46:40;2.95;;;1.90;;
13941;SDS011;7043;51.630;7.254;2022-10-16T16:49:08;2.47;;;1.70;;
13941;SDS011;7043;51.630;7.254;2022-10-16T16:51:34;3.78;;;1.60;;
13941;SDS011;7043;51.630;7.254;2022-10-16T16:54:00;1.90;;;1.58;;
13941;SDS011;7043;51.630;7.254;2022-10-16T16:56:26;2.40;;;1.70;;
13941;SDS011;7043;51.630;7.254;2022-10-16T16:58:53;2.75;;;1.45;;
13941;SDS011;7043;51.630;7.254;2022-10-16T17:01:20;3.28;;;1.50;;
13941;SDS011;7043;51.630;7.254;2022-10-16T17:03:46;18.20;;;15.55;;
13941;SDS011;7043;51.630;7.254;2022-10-16T17:06:14;2.63;;;2.15;;